Time;durP1;ratioP1;P1;durP2;ratioP2;P2;SDS_P1;SDS_P2;PMS_P1;PMS_P2;Temp;Humidity;BMP_temperature;BMP_pressure;BME280_temperature;BME280_humidity;BME280_pressure;Samples;Min_cycle;Max_cycle;Signal;HPM_P1;HPM_P2
2023/11/12 00:01:02;;;;;;;190.68;176.90;;;;;;;;;;5002080;28;25073;-72
2023/11/12 00:03:28;;;;;;;185.25;171.52;;;;;;;;;;5003474;28;25068;-70
2023/11/12 00:05:54;;;;;;;186.35;172.77;;;;;;;;;;4991150;28;25099;-70
2023/11/12 00:08:20;;;;;;;187.85;174.15;;;;;;;;;;4999733;28;25068;-70
2023/11/12 00:10:47;;;;;;;197.88;183.00;;;;;;;;;;5018428;28;25109;-71
2023/11/12 00:13:13;;;;;;;190.77;176.50;;;;;;;;;;4996101;28;25051;-71
2023/11/12 00:15:40;;;;;;;189.70;175.40;;;;;;;;;;5008303;28;25061;-71
2023/11/12 00:18:06;;;;;;;196.52;181.95;;;;;;;;;;4995380;28;25059;-70
2023/11/12 00:20:33;;;;;;;203.05;188.15;;;;;;;;;;4998590;28;25052;-70
2023/11/12 00:22:59;;;;;;;204.88;189.75;;;;;;;;;;4988301;28;25071;-71
2023/11/12 00:25:26;;;;;;;197.57;183.13;;;;;;;;;;4997555;28;25069;-70
2023/11/12 00:27:52;;;;;;;203.43;187.90;;;;;;;;;;4990262;28;25079;-70
2023/11/12 00:30:18;;;;;;;210.73;194.77;;;;;;;;;;4994355;28;25060;-70
2023/11/12 00:32:44;;;;;;;202.77;187.70;;;;;;;;;;4990082;28;25055;-72
2023/11/12 00:35:11;;;;;;;208.50;192.90;;;;;;;;;;4993939;28;25047;-70
2023/11/12 00:37:38;;;;;;;205.90;190.20;;;;;;;;;;4992697;28;25081;-70
2023/11/12 00:40:05;;;;;;;209.50;193.77;;;;;;;;;;4990782;28;25106;-70
2023/11/12 00:42:31;;;;;;;207.20;191.63;;;;;;;;;;4988820;28;25068;-69
2023/11/12 00:44:58;;;;;;;205.77;189.93;;;;;;;;;;4995571;28;25109;-72
2023/11/12 00:47:24;;;;;;;220.13;203.90;;;;;;;;;;4992918;28;25098;-71
2023/11/12 00:49:50;;;;;;;219.23;202.77;;;;;;;;;;4987792;28;25058;-72
2023/11/12 00:52:16;;;;;;;221.15;204.30;;;;;;;;;;4999989;28;25101;-71
2023/11/12 00:54:42;;;;;;;211.07;194.57;;;;;;;;;;4992546;28;25063;-71
2023/11/12 00:57:09;;;;;;;219.73;203.50;;;;;;;;;;4998574;28;25077;-70
2023/11/12 00:59:36;;;;;;;221.00;203.95;;;;;;;;;;4998302;28;25069;-69
2023/11/12 01:02:02;;;;;;;215.10;199.10;;;;;;;;;;4977335;28;25172;-70
2023/11/12 01:04:28;;;;;;;199.35;184.38;;;;;;;;;;4993117;28;26149;-71
2023/11/12 01:06:54;;;;;;;196.95;181.88;;;;;;;;;;4996828;28;25062;-69
2023/11/12 01:09:19;;;;;;;194.07;179.75;;;;;;;;;;4994853;28;25106;-71
2023/11/12 01:11:45;;;;;;;190.70;176.45;;;;;;;;;;4995267;28;25085;-70
2023/11/12 01:14:12;;;;;;;192.75;178.15;;;;;;;;;;4993583;28;25140;-72
2023/11/12 01:16:38;;;;;;;191.02;177.43;;;;;;;;;;4985109;28;25084;-71
2023/11/12 01:19:05;;;;;;;192.82;178.75;;;;;;;;;;4990662;28;25084;-70
2023/11/12 01:21:31;;;;;;;193.20;179.65;;;;;;;;;;4987324;28;26182;-71
2023/11/12 01:23:57;;;;;;;188.43;174.63;;;;;;;;;;4990709;28;25086;-71
2023/11/12 01:26:24;;;;;;;196.50;182.50;;;;;;;;;;4989657;28;25090;-71
2023/11/12 01:28:50;;;;;;;202.95;188.20;;;;;;;;;;4986239;28;25049;-71
2023/11/12 01:31:16;;;;;;;216.73;200.13;;;;;;;;;;4985708;28;25064;-70
2023/11/12 01:33:42;;;;;;;225.05;207.73;;;;;;;;;;4990717;28;25110;-71
2023/11/12 01:36:08;;;;;;;223.55;206.13;;;;;;;;;;4988016;28;25156;-71
2023/11/12 01:38:34;;;;;;;223.10;205.73;;;;;;;;;;4990513;28;25092;-71
2023/11/12 01:41:03;;;;;;;226.00;208.50;;;;;;;;;;4992762;28;25087;-71
2023/11/12 01:43:32;;;;;;;224.88;207.73;;;;;;;;;;4990784;28;25059;-71
2023/11/12 01:46:00;;;;;;;220.88;204.23;;;;;;;;;;4992196;28;25052;-70
2023/11/12 01:48:30;;;;;;;225.55;208.30;;;;;;;;;;4992854;28;25127;-70
2023/11/12 01:50:57;;;;;;;231.50;213.32;;;;;;;;;;4988340;28;25053;-71
2023/11/12 01:53:23;;;;;;;238.15;219.35;;;;;;;;;;4991779;28;25057;-70
2023/11/12 01:55:49;;;;;;;242.43;223.55;;;;;;;;;;4993624;28;25051;-71
2023/11/12 01:58:17;;;;;;;242.30;222.85;;;;;;;;;;4989091;28;25142;-71
2023/11/12 02:00:44;;;;;;;245.10;225.57;;;;;;;;;;4990400;28;25056;-72
2023/11/12 02:03:12;;;;;;;244.70;224.98;;;;;;;;;;4984832;28;25085;-71
2023/11/12 02:05:38;;;;;;;248.68;228.48;;;;;;;;;;4988624;28;25053;-71
2023/11/12 02:08:05;;;;;;;244.77;225.07;;;;;;;;;;4987707;28;25085;-71
2023/11/12 02:10:36;;;;;;;250.40;229.75;;;;;;;;;;4989323;28;25155;-71
2023/11/12 02:13:04;;;;;;;248.05;228.27;;;;;;;;;;4988466;28;25113;-71
2023/11/12 02:15:31;;;;;;;243.55;223.68;;;;;;;;;;4983426;28;25061;-71
2023/11/12 02:17:57;;;;;;;245.63;225.50;;;;;;;;;;4987866;28;25047;-71
2023/11/12 02:20:23;;;;;;;244.38;224.10;;;;;;;;;;4989091;28;25061;-71
2023/11/12 02:22:50;;;;;;;242.10;222.55;;;;;;;;;;4990093;28;25069;-70
2023/11/12 02:25:16;;;;;;;244.10;224.45;;;;;;;;;;4993804;28;25152;-70
2023/11/12 02:27:45;;;;;;;244.27;224.27;;;;;;;;;;5000311;28;25154;-71
2023/11/12 02:30:12;;;;;;;242.90;222.90;;;;;;;;;;4988027;28;25104;-70
2023/11/12 02:32:40;;;;;;;244.75;224.73;;;;;;;;;;4991407;28;25153;-70
2023/11/12 02:35:07;;;;;;;248.60;228.20;;;;;;;;;;4995106;28;25082;-70
2023/11/12 02:37:35;;;;;;;247.80;227.63;;;;;;;;;;4989610;28;25119;-71
2023/11/12 02:40:01;;;;;;;247.68;227.40;;;;;;;;;;4991455;28;25065;-71
2023/11/12 02:42:29;;;;;;;266.08;244.02;;;;;;;;;;5007906;28;25159;-72
2023/11/12 02:44:56;;;;;;;262.92;240.80;;;;;;;;;;5006449;28;25167;-71
2023/11/12 02:47:22;;;;;;;262.85;240.43;;;;;;;;;;5013375;28;25074;-71
2023/11/12 02:50:05;;;;;;;262.30;240.32;;;;;;;;;;5017313;28;25079;-71
2023/11/12 02:52:32;;;;;;;256.35;234.70;;;;;;;;;;5009717;28;25080;-72
2023/11/12 02:54:58;;;;;;;261.67;239.38;;;;;;;;;;5018905;28;25063;-71
2023/11/12 02:57:24;;;;;;;263.92;241.20;;;;;;;;;;5014453;28;25089;-71
2023/11/12 02:59:51;;;;;;;262.23;239.77;;;;;;;;;;5014918;28;25083;-72
2023/11/12 03:02:17;;;;;;;268.77;245.82;;;;;;;;;;5008275;28;25049;-71
2023/11/12 03:04:43;;;;;;;262.70;240.75;;;;;;;;;;5013835;28;25079;-71
2023/11/12 03:07:09;;;;;;;258.15;236.65;;;;;;;;;;5008840;28;25134;-71
2023/11/12 03:09:35;;;;;;;257.42;236.07;;;;;;;;;;5008958;28;25071;-71
2023/11/12 03:12:02;;;;;;;255.95;234.45;;;;;;;;;;5010443;28;25074;-71
2023/11/12 03:14:29;;;;;;;254.70;233.45;;;;;;;;;;5013756;28;25078;-70
2023/11/12 03:16:55;;;;;;;254.75;233.50;;;;;;;;;;5015421;28;25138;-70
2023/11/12 03:19:21;;;;;;;251.35;230.60;;;;;;;;;;5014548;28;25061;-70
2023/11/12 03:21:56;;;;;;;250.43;229.63;;;;;;;;;;5015952;28;25050;-71
2023/11/12 03:24:23;;;;;;;246.65;226.13;;;;;;;;;;5009024;28;25145;-69
2023/11/12 03:26:55;;;;;;;243.15;223.30;;;;;;;;;;5016557;28;25160;-70
2023/11/12 03:29:23;;;;;;;243.43;223.70;;;;;;;;;;5013933;28;25083;-70
2023/11/12 03:31:50;;;;;;;241.93;222.57;;;;;;;;;;5018158;28;25079;-70
2023/11/12 03:34:17;;;;;;;236.57;217.52;;;;;;;;;;5010009;28;25086;-69
2023/11/12 03:36:43;;;;;;;234.00;215.25;;;;;;;;;;5011564;28;25059;-71
2023/11/12 03:39:09;;;;;;;239.55;220.40;;;;;;;;;;5015770;28;25148;-70
2023/11/12 03:41:35;;;;;;;236.35;217.52;;;;;;;;;;4994487;28;25054;-71
2023/11/12 03:44:03;;;;;;;236.25;218.00;;;;;;;;;;4997957;28;25073;-70
2023/11/12 03:46:29;;;;;;;235.02;216.48;;;;;;;;;;5004639;28;25088;-70
2023/11/12 03:48:55;;;;;;;232.60;214.70;;;;;;;;;;5013158;28;25089;-71
2023/11/12 03:51:21;;;;;;;229.13;210.88;;;;;;;;;;4985502;28;25061;-71
2023/11/12 03:53:47;;;;;;;232.23;213.70;;;;;;;;;;5011080;28;25138;-69
2023/11/12 03:56:13;;;;;;;229.73;212.18;;;;;;;;;;5008031;28;25066;-70
2023/11/12 03:58:39;;;;;;;227.50;210.25;;;;;;;;;;5007594;28;25059;-71
2023/11/12 04:01:05;;;;;;;229.13;211.95;;;;;;;;;;5012136;28;25074;-71
2023/11/12 04:03:31;;;;;;;227.85;210.70;;;;;;;;;;5010343;28;25059;-71
2023/11/12 04:05:57;;;;;;;228.00;210.90;;;;;;;;;;4991193;28;25093;-71
2023/11/12 04:08:23;;;;;;;219.68;203.65;;;;;;;;;;4992744;28;25149;-70
2023/11/12 04:10:49;;;;;;;227.70;210.52;;;;;;;;;;5008200;28;25069;-70
2023/11/12 04:13:16;;;;;;;228.30;211.27;;;;;;;;;;4988083;28;25081;-70
2023/11/12 04:15:42;;;;;;;227.32;210.57;;;;;;;;;;4996328;28;25056;-70
2023/11/12 04:18:08;;;;;;;231.80;214.05;;;;;;;;;;4990092;28;25075;-70
2023/11/12 04:20:34;;;;;;;227.70;210.80;;;;;;;;;;4992894;28;25052;-70
2023/11/12 04:23:00;;;;;;;229.70;213.05;;;;;;;;;;4984959;28;25134;-71
2023/11/12 04:25:26;;;;;;;230.50;213.40;;;;;;;;;;4985300;28;25061;-71
2023/11/12 04:27:52;;;;;;;230.70;213.63;;;;;;;;;;4997763;28;25149;-71
2023/11/12 04:30:18;;;;;;;232.75;215.40;;;;;;;;;;4987221;28;25065;-71
2023/11/12 04:32:45;;;;;;;236.95;219.23;;;;;;;;;;4986522;28;25089;-71
2023/11/12 04:35:14;;;;;;;240.00;221.75;;;;;;;;;;4995579;28;25080;-70
2023/11/12 04:37:40;;;;;;;241.77;223.35;;;;;;;;;;5000811;28;25062;-71
2023/11/12 04:40:09;;;;;;;246.35;227.38;;;;;;;;;;4997719;28;25103;-70
2023/11/12 04:42:35;;;;;;;249.80;230.50;;;;;;;;;;4982126;28;25109;-70
2023/11/12 04:45:02;;;;;;;249.82;230.65;;;;;;;;;;4990012;28;25121;-71
2023/11/12 04:47:28;;;;;;;249.05;229.52;;;;;;;;;;4989605;28;25117;-69
2023/11/12 04:49:54;;;;;;;256.63;236.60;;;;;;;;;;4987280;28;25070;-70
2023/11/12 04:52:20;;;;;;;258.63;237.70;;;;;;;;;;4998079;28;25075;-71
2023/11/12 04:54:50;;;;;;;265.63;244.68;;;;;;;;;;4985422;28;25070;-71
2023/11/12 04:57:17;;;;;;;260.52;239.60;;;;;;;;;;4991889;28;25093;-70
2023/11/12 04:59:43;;;;;;;266.33;244.88;;;;;;;;;;4994811;28;25078;-70
2023/11/12 05:02:13;;;;;;;268.02;246.88;;;;;;;;;;4992513;28;25052;-70
2023/11/12 05:04:42;;;;;;;266.33;245.15;;;;;;;;;;4989180;28;25081;-69
2023/11/12 05:07:08;;;;;;;274.65;253.25;;;;;;;;;;4990804;28;25156;-71
2023/11/12 05:09:35;;;;;;;265.63;244.73;;;;;;;;;;4989321;28;25054;-70
2023/11/12 05:12:01;;;;;;;263.83;243.25;;;;;;;;;;4988852;28;25048;-70
2023/11/12 05:14:27;;;;;;;260.45;240.10;;;;;;;;;;4990474;28;25057;-70
2023/11/12 05:16:53;;;;;;;264.88;243.73;;;;;;;;;;4989056;28;25421;-70
2023/11/12 05:19:20;;;;;;;264.52;243.95;;;;;;;;;;4990280;28;25090;-70
2023/11/12 05:21:46;;;;;;;269.63;248.50;;;;;;;;;;4990054;28;25066;-70
2023/11/12 05:24:13;;;;;;;273.13;251.27;;;;;;;;;;4996941;28;25097;-70
2023/11/12 05:26:39;;;;;;;281.77;258.95;;;;;;;;;;4992881;28;25071;-70
2023/11/12 05:29:05;;;;;;;271.80;250.50;;;;;;;;;;4996327;28;25097;-71
2023/11/12 05:31:34;;;;;;;272.55;250.75;;;;;;;;;;5010369;28;25077;-71
2023/11/12 05:34:01;;;;;;;270.42;248.82;;;;;;;;;;5006742;28;25274;-70
2023/11/12 05:36:27;;;;;;;262.67;242.00;;;;;;;;;;4990723;28;25061;-70
2023/11/12 05:38:53;;;;;;;257.35;236.85;;;;;;;;;;4989554;28;25107;-70
2023/11/12 05:41:19;;;;;;;268.60;247.15;;;;;;;;;;4991667;28;25087;-70
2023/11/12 05:43:46;;;;;;;268.73;248.02;;;;;;;;;;4991438;28;25096;-70
2023/11/12 05:46:12;;;;;;;267.30;246.65;;;;;;;;;;4988709;28;25089;-70
2023/11/12 05:48:38;;;;;;;264.60;244.05;;;;;;;;;;4993356;28;25128;-70
2023/11/12 05:51:05;;;;;;;260.50;240.18;;;;;;;;;;5002710;28;25113;-71
2023/11/12 05:53:31;;;;;;;263.33;243.10;;;;;;;;;;4995567;28;25069;-70
2023/11/12 05:55:57;;;;;;;255.80;236.02;;;;;;;;;;4988421;28;25051;-71
2023/11/12 05:58:23;;;;;;;244.73;226.23;;;;;;;;;;4993877;28;25067;-71
2023/11/12 06:00:54;;;;;;;240.48;222.38;;;;;;;;;;4991322;28;25071;-71
2023/11/12 06:03:20;;;;;;;244.70;226.45;;;;;;;;;;4985089;28;25078;-69
2023/11/12 06:05:46;;;;;;;237.32;220.05;;;;;;;;;;4993515;28;25068;-70
2023/11/12 06:08:12;;;;;;;243.45;225.93;;;;;;;;;;4986599;28;25098;-71
2023/11/12 06:10:42;;;;;;;241.55;224.23;;;;;;;;;;4994506;28;25106;-70
2023/11/12 06:13:08;;;;;;;247.13;228.85;;;;;;;;;;4994583;28;25100;-69
2023/11/12 06:15:34;;;;;;;252.07;233.65;;;;;;;;;;4994664;28;25061;-71
2023/11/12 06:18:00;;;;;;;249.18;231.32;;;;;;;;;;4985093;28;25059;-71
2023/11/12 06:20:27;;;;;;;241.85;224.60;;;;;;;;;;5001330;28;25095;-71
2023/11/12 06:22:53;;;;;;;242.45;224.75;;;;;;;;;;5002883;28;25079;-70
2023/11/12 06:25:19;;;;;;;240.18;222.80;;;;;;;;;;4993785;28;25075;-72
2023/11/12 06:27:47;;;;;;;235.88;218.82;;;;;;;;;;4988927;28;25084;-70
2023/11/12 06:30:13;;;;;;;239.57;221.65;;;;;;;;;;4994327;28;25133;-70
2023/11/12 06:32:39;;;;;;;237.20;219.75;;;;;;;;;;4994022;28;25139;-71
2023/11/12 06:35:05;;;;;;;232.30;215.32;;;;;;;;;;4985946;28;25092;-71
2023/11/12 06:37:31;;;;;;;239.35;221.88;;;;;;;;;;4987709;28;25083;-71
2023/11/12 06:39:57;;;;;;;241.18;223.35;;;;;;;;;;4994484;28;25090;-71
2023/11/12 06:42:24;;;;;;;242.88;225.20;;;;;;;;;;4986870;28;25056;-71
2023/11/12 06:44:50;;;;;;;233.98;217.10;;;;;;;;;;4993312;28;25067;-71
2023/11/12 06:47:18;;;;;;;245.70;227.48;;;;;;;;;;4996037;28;25058;-71
2023/11/12 06:49:44;;;;;;;250.95;231.60;;;;;;;;;;4995245;28;25096;-70
2023/11/12 06:52:10;;;;;;;257.70;238.13;;;;;;;;;;4997190;28;25084;-71
2023/11/12 06:54:36;;;;;;;241.38;222.50;;;;;;;;;;4996105;28;25144;-71
2023/11/12 06:57:02;;;;;;;240.27;222.15;;;;;;;;;;4983907;28;25047;-71
2023/11/12 06:59:29;;;;;;;250.38;231.30;;;;;;;;;;4992693;28;25054;-69
2023/11/12 07:01:55;;;;;;;233.80;216.13;;;;;;;;;;4996867;28;25110;-71
2023/11/12 07:04:21;;;;;;;231.10;213.95;;;;;;;;;;4991369;28;25075;-70
2023/11/12 07:06:47;;;;;;;235.32;218.48;;;;;;;;;;4988547;28;25054;-71
2023/11/12 07:09:13;;;;;;;237.85;220.38;;;;;;;;;;4995110;28;25103;-69
2023/11/12 07:11:39;;;;;;;246.52;228.60;;;;;;;;;;4990970;28;25103;-71
2023/11/12 07:14:05;;;;;;;239.43;222.13;;;;;;;;;;5002332;28;25135;-70
2023/11/12 07:16:31;;;;;;;235.80;218.30;;;;;;;;;;5001358;28;25096;-71
2023/11/12 07:18:57;;;;;;;241.02;223.45;;;;;;;;;;4989522;28;25112;-70
2023/11/12 07:21:30;;;;;;;235.50;218.98;;;;;;;;;;4991180;28;25071;-72
2023/11/12 07:23:56;;;;;;;240.60;223.52;;;;;;;;;;4993465;28;25061;-71
2023/11/12 07:26:24;;;;;;;243.57;226.35;;;;;;;;;;4991475;28;25066;-71
2023/11/12 07:28:50;;;;;;;242.02;224.98;;;;;;;;;;4994684;28;25069;-70
2023/11/12 07:31:17;;;;;;;252.60;234.15;;;;;;;;;;5006491;28;25074;-71
2023/11/12 07:33:43;;;;;;;260.27;241.02;;;;;;;;;;4988038;28;25192;-73
2023/11/12 07:36:12;;;;;;;259.80;240.50;;;;;;;;;;4982299;28;25066;-73
2023/11/12 07:38:38;;;;;;;268.40;247.85;;;;;;;;;;4989572;28;25058;-71
2023/11/12 07:41:04;;;;;;;270.27;249.32;;;;;;;;;;5013452;28;25132;-72
2023/11/12 07:43:30;;;;;;;274.83;253.43;;;;;;;;;;4991864;28;25134;-72
2023/11/12 07:45:56;;;;;;;274.17;252.90;;;;;;;;;;4995800;28;25167;-74
2023/11/12 07:48:22;;;;;;;269.70;248.80;;;;;;;;;;5004046;28;25048;-72
2023/11/12 07:50:48;;;;;;;276.17;254.77;;;;;;;;;;5008457;28;25068;-71
2023/11/12 07:53:14;;;;;;;280.17;258.30;;;;;;;;;;5009494;28;25070;-72
2023/11/12 07:55:41;;;;;;;283.30;260.95;;;;;;;;;;5009604;28;25093;-71
2023/11/12 07:58:07;;;;;;;291.38;268.27;;;;;;;;;;5013714;28;25105;-71
2023/11/12 08:00:33;;;;;;;283.83;261.40;;;;;;;;;;5008127;28;25075;-71
2023/11/12 08:02:59;;;;;;;284.95;261.70;;;;;;;;;;5009454;28;25126;-72
2023/11/12 08:05:25;;;;;;;282.23;259.60;;;;;;;;;;5007584;28;25065;-73
2023/11/12 08:07:51;;;;;;;281.50;259.02;;;;;;;;;;5004538;28;25069;-71
2023/11/12 08:10:19;;;;;;;289.67;266.30;;;;;;;;;;5010238;28;25081;-73
2023/11/12 08:12:46;;;;;;;290.00;266.20;;;;;;;;;;4987868;28;25078;-73
2023/11/12 08:15:12;;;;;;;293.75;268.65;;;;;;;;;;5009642;28;25154;-72
2023/11/12 08:17:39;;;;;;;303.42;277.17;;;;;;;;;;5009939;28;25068;-73
2023/11/12 08:20:05;;;;;;;302.27;276.20;;;;;;;;;;5008645;28;25098;-72
2023/11/12 08:22:31;;;;;;;307.38;281.23;;;;;;;;;;5004342;28;25066;-73
2023/11/12 08:24:58;;;;;;;371.35;280.77;;;;;;;;;;5015523;28;25062;-72
2023/11/12 08:27:24;;;;;;;324.52;290.27;;;;;;;;;;5010527;28;25068;-72
2023/11/12 08:29:51;;;;;;;319.42;285.58;;;;;;;;;;5010923;28;25087;-72
2023/11/12 08:32:17;;;;;;;418.65;284.65;;;;;;;;;;5006706;28;25146;-72
2023/11/12 08:34:45;;;;;;;381.50;277.33;;;;;;;;;;5008351;28;25091;-72
2023/11/12 08:37:11;;;;;;;474.98;288.67;;;;;;;;;;5002725;28;25144;-72
2023/11/12 08:39:38;;;;;;;358.85;279.15;;;;;;;;;;5000144;28;25086;-71
2023/11/12 08:42:04;;;;;;;562.40;283.17;;;;;;;;;;5006537;28;25156;-72
2023/11/12 08:44:30;;;;;;;412.40;294.77;;;;;;;;;;5001172;28;25073;-71
2023/11/12 08:46:56;;;;;;;323.67;289.35;;;;;;;;;;5001373;28;25064;-72
2023/11/12 08:49:22;;;;;;;325.02;283.13;;;;;;;;;;4984779;28;25155;-71
2023/11/12 08:51:48;;;;;;;325.00;290.45;;;;;;;;;;4997900;28;25118;-76
2023/11/12 08:54:14;;;;;;;357.70;289.45;;;;;;;;;;4982012;28;25060;-71
2023/11/12 08:56:41;;;;;;;308.95;275.05;;;;;;;;;;4990532;28;25090;-72
2023/11/12 08:59:07;;;;;;;316.73;282.60;;;;;;;;;;4981161;28;25542;-73
2023/11/12 09:01:36;;;;;;;390.67;290.08;;;;;;;;;;4986138;28;25131;-75
2023/11/12 09:04:02;;;;;;;316.83;270.90;;;;;;;;;;4992952;28;25161;-73
2023/11/12 09:06:28;;;;;;;334.85;278.65;;;;;;;;;;4993166;28;25074;-73
2023/11/12 09:08:55;;;;;;;311.95;277.42;;;;;;;;;;4983772;28;25061;-73
2023/11/12 09:11:21;;;;;;;303.63;270.35;;;;;;;;;;4985234;28;25094;-73
2023/11/12 09:13:48;;;;;;;308.98;269.25;;;;;;;;;;4992746;28;25076;-74
2023/11/12 09:16:14;;;;;;;298.45;268.58;;;;;;;;;;4991257;28;24878;-74
2023/11/12 09:18:40;;;;;;;294.23;262.30;;;;;;;;;;4988238;28;25085;-76
2023/11/12 09:21:06;;;;;;;288.67;261.05;;;;;;;;;;4980743;28;25052;-72
2023/11/12 09:23:32;;;;;;;290.77;261.02;;;;;;;;;;4986175;28;25066;-75
2023/11/12 09:25:59;;;;;;;289.30;260.50;;;;;;;;;;4993123;28;25142;-72
2023/11/12 09:28:25;;;;;;;285.10;257.88;;;;;;;;;;4985614;28;25097;-72
2023/11/12 09:30:51;;;;;;;298.95;263.38;;;;;;;;;;4986690;28;25096;-72
2023/11/12 09:33:17;;;;;;;282.38;244.18;;;;;;;;;;5003428;28;25078;-72
2023/11/12 09:35:44;;;;;;;309.33;263.23;;;;;;;;;;4995059;28;25092;-72
2023/11/12 09:38:10;;;;;;;288.33;259.65;;;;;;;;;;4990058;28;25063;-73
2023/11/12 09:40:36;;;;;;;282.58;247.32;;;;;;;;;;4990137;28;25166;-73
2023/11/12 09:43:03;;;;;;;273.10;245.73;;;;;;;;;;4989588;28;25060;-72
2023/11/12 09:45:29;;;;;;;270.27;241.82;;;;;;;;;;4979169;28;25068;-72
2023/11/12 09:47:56;;;;;;;269.33;243.82;;;;;;;;;;4978413;28;25046;-72
2023/11/12 09:50:22;;;;;;;288.08;243.00;;;;;;;;;;4978796;28;25079;-72
2023/11/12 09:52:49;;;;;;;270.75;242.93;;;;;;;;;;4986567;28;25171;-71
2023/11/12 09:55:19;;;;;;;270.38;242.82;;;;;;;;;;4976520;28;25105;-72
2023/11/12 09:57:46;;;;;;;262.73;236.95;;;;;;;;;;4979619;28;25070;-72
2023/11/12 10:00:12;;;;;;;252.38;227.32;;;;;;;;;;4976573;28;25097;-71
2023/11/12 10:02:39;;;;;;;258.80;231.35;;;;;;;;;;4985558;28;25132;-72
2023/11/12 10:05:10;;;;;;;245.60;221.32;;;;;;;;;;4999568;28;25083;-71
2023/11/12 10:07:42;;;;;;;245.38;219.93;;;;;;;;;;4996680;28;25179;-71
2023/11/12 10:10:25;;;;;;;244.77;221.73;;;;;;;;;;5009789;28;25094;-71
2023/11/12 10:12:52;;;;;;;240.63;219.10;;;;;;;;;;4981300;28;25108;-73
2023/11/12 10:15:23;;;;;;;242.48;216.68;;;;;;;;;;4991035;28;25057;-71
2023/11/12 10:17:49;;;;;;;243.27;220.30;;;;;;;;;;4979603;28;25072;-71
2023/11/12 10:20:22;;;;;;;242.20;219.55;;;;;;;;;;4996323;28;25063;-71
2023/11/12 10:22:48;;;;;;;238.38;217.63;;;;;;;;;;4980748;28;25068;-71
2023/11/12 10:25:14;;;;;;;236.40;216.05;;;;;;;;;;4978584;28;25048;-71
2023/11/12 10:27:53;;;;;;;242.88;220.48;;;;;;;;;;4988912;28;25148;-72
2023/11/12 10:30:20;;;;;;;238.60;214.63;;;;;;;;;;4982734;28;25090;-72
2023/11/12 10:32:46;;;;;;;239.90;217.05;;;;;;;;;;4976556;28;25060;-72
2023/11/12 10:35:24;;;;;;;236.57;211.50;;;;;;;;;;4979687;28;25054;-71
2023/11/12 10:37:59;;;;;;;248.52;216.25;;;;;;;;;;4986025;28;25142;-72
2023/11/12 10:40:25;;;;;;;243.93;223.02;;;;;;;;;;4976230;28;25098;-72
2023/11/12 10:42:58;;;;;;;243.93;221.63;;;;;;;;;;4982811;28;25094;-72
2023/11/12 10:45:24;;;;;;;;;;;;;;;;;;4980876;28;25053;-73
2023/11/12 10:47:52;;;;;;;229.65;207.38;;;;;;;;;;4985837;28;25059;-72
2023/11/12 10:50:18;;;;;;;234.77;213.85;;;;;;;;;;4983506;28;25065;-71
2023/11/12 10:52:45;;;;;;;243.75;221.88;;;;;;;;;;4981288;28;25121;-72
2023/11/12 10:55:11;;;;;;;237.77;214.63;;;;;;;;;;4984391;28;25147;-73
2023/11/12 10:57:41;;;;;;;243.50;219.55;;;;;;;;;;4987372;28;25097;-71
2023/11/12 11:00:10;;;;;;;239.93;219.00;;;;;;;;;;4986189;28;25055;-69
2023/11/12 11:02:37;;;;;;;239.25;211.27;;;;;;;;;;4989562;28;25139;-72
2023/11/12 11:05:05;;;;;;;226.40;204.77;;;;;;;;;;4990867;28;25065;-71
2023/11/12 11:07:31;;;;;;;235.85;213.88;;;;;;;;;;4990760;28;25149;-73
2023/11/12 11:09:57;;;;;;;240.60;217.45;;;;;;;;;;4990242;28;25085;-75
2023/11/12 11:12:24;;;;;;;235.98;213.05;;;;;;;;;;4984881;28;25081;-76
2023/11/12 11:14:51;;;;;;;239.27;216.80;;;;;;;;;;4988951;28;25079;-70
2023/11/12 11:17:36;;;;;;;255.20;230.10;;;;;;;;;;4983550;28;25078;-72
2023/11/12 11:20:02;;;;;;;249.55;225.13;;;;;;;;;;4982640;28;25131;-72
2023/11/12 11:22:31;;;;;;;240.07;218.18;;;;;;;;;;4984801;28;25067;-74
2023/11/12 11:24:57;;;;;;;245.07;221.40;;;;;;;;;;4989650;28;25076;-72
2023/11/12 11:27:28;;;;;;;266.02;240.63;;;;;;;;;;4997674;28;25106;-72
2023/11/12 11:30:06;;;;;;;255.25;228.98;;;;;;;;;;4996943;28;25065;-71
2023/11/12 11:32:33;;;;;;;263.48;239.27;;;;;;;;;;4987447;28;25047;-73
2023/11/12 11:34:59;;;;;;;264.17;239.32;;;;;;;;;;4995631;28;25142;-72
2023/11/12 11:37:45;;;;;;;283.27;256.65;;;;;;;;;;4986666;28;25066;-72
2023/11/12 11:40:30;;;;;;;288.38;258.85;;;;;;;;;;4980552;28;25095;-71
2023/11/12 11:43:15;;;;;;;278.70;252.00;;;;;;;;;;5004247;28;25136;-72
2023/11/12 11:46:00;;;;;;;273.75;248.23;;;;;;;;;;5006433;28;25146;-73
2023/11/12 11:48:26;;;;;;;270.50;245.00;;;;;;;;;;5009912;28;25096;-72
2023/11/12 11:50:52;;;;;;;262.50;237.77;;;;;;;;;;5009117;28;25045;-71
2023/11/12 11:53:19;;;;;;;263.15;236.02;;;;;;;;;;5006712;28;25063;-72
2023/11/12 11:55:48;;;;;;;265.60;238.32;;;;;;;;;;5004184;28;25071;-72
2023/11/12 11:58:14;;;;;;;255.90;232.57;;;;;;;;;;5003450;28;25063;-71
2023/11/12 12:00:57;;;;;;;244.57;221.68;;;;;;;;;;5009906;28;25158;-72
2023/11/12 12:03:25;;;;;;;246.52;223.80;;;;;;;;;;5005156;28;25052;-72
2023/11/12 12:05:52;;;;;;;244.80;222.85;;;;;;;;;;5007049;28;25113;-71
2023/11/12 12:08:18;;;;;;;246.32;223.30;;;;;;;;;;5003374;28;25070;-72
2023/11/12 12:10:45;;;;;;;230.82;210.73;;;;;;;;;;4999594;28;25103;-73
2023/11/12 12:13:12;;;;;;;239.30;217.70;;;;;;;;;;5009789;28;25150;-72
2023/11/12 12:15:38;;;;;;;247.55;223.63;;;;;;;;;;5007370;28;25065;-73
2023/11/12 12:18:22;;;;;;;246.55;221.73;;;;;;;;;;5004423;28;25077;-73
2023/11/12 12:20:47;;;;;;;227.55;205.35;;;;;;;;;;5005075;28;25074;-72
2023/11/12 12:23:13;;;;;;;264.85;238.63;;;;;;;;;;5003382;28;25076;-74
2023/11/12 12:25:52;;;;;;;302.73;271.80;;;;;;;;;;5008152;28;25054;-72
2023/11/12 12:28:20;;;;;;;245.77;223.05;;;;;;;;;;5014268;28;25083;-72
2023/11/12 12:30:55;;;;;;;230.77;209.02;;;;;;;;;;5005219;28;25051;-72
2023/11/12 12:33:24;;;;;;;234.23;211.07;;;;;;;;;;5021888;28;25076;-72
2023/11/12 12:35:50;;;;;;;233.85;211.70;;;;;;;;;;5003897;28;25070;-72
2023/11/12 12:38:16;;;;;;;240.90;218.18;;;;;;;;;;5017106;28;25049;-71
2023/11/12 12:40:48;;;;;;;233.38;211.55;;;;;;;;;;5011053;28;25071;-73
2023/11/12 12:43:14;;;;;;;236.30;213.98;;;;;;;;;;5017094;28;25104;-72
2023/11/12 12:45:40;;;;;;;228.73;207.55;;;;;;;;;;5010969;28;25102;-72
2023/11/12 12:48:14;;;;;;;235.50;214.10;;;;;;;;;;5014575;28;25046;-71
2023/11/12 12:50:40;;;;;;;226.88;206.60;;;;;;;;;;5011406;28;25066;-72
2023/11/12 12:53:13;;;;;;;221.55;201.10;;;;;;;;;;5013356;28;25086;-72
2023/11/12 12:55:39;;;;;;;229.52;206.68;;;;;;;;;;5011568;28;25047;-72
2023/11/12 12:58:06;;;;;;;230.88;209.13;;;;;;;;;;5009239;28;25122;-71
2023/11/12 13:00:32;;;;;;;243.27;219.68;;;;;;;;;;5011223;28;25082;-71
2023/11/12 13:02:58;;;;;;;242.20;218.93;;;;;;;;;;5006379;28;25102;-73
2023/11/12 13:05:25;;;;;;;230.45;208.63;;;;;;;;;;5014195;28;25076;-72
2023/11/12 13:07:51;;;;;;;238.88;216.48;;;;;;;;;;5006499;28;25078;-73
2023/11/12 13:10:25;;;;;;;234.70;212.75;;;;;;;;;;5007986;28;25095;-73
2023/11/12 13:12:59;;;;;;;248.23;225.27;;;;;;;;;;5006632;28;25135;-72
2023/11/12 13:15:25;;;;;;;255.63;232.50;;;;;;;;;;5005937;28;25135;-72
2023/11/12 13:17:52;;;;;;;248.75;226.38;;;;;;;;;;5008661;28;25072;-71
2023/11/12 13:20:20;;;;;;;258.65;235.73;;;;;;;;;;5009663;28;25079;-72
2023/11/12 13:22:46;;;;;;;242.75;221.63;;;;;;;;;;5013391;28;25091;-72
2023/11/12 13:25:14;;;;;;;258.02;235.77;;;;;;;;;;5014881;28;25129;-71
2023/11/12 13:27:44;;;;;;;250.55;228.88;;;;;;;;;;5005224;28;25097;-70
2023/11/12 13:30:11;;;;;;;256.25;235.27;;;;;;;;;;5018723;28;25056;-71
2023/11/12 13:32:37;;;;;;;261.00;239.55;;;;;;;;;;5014163;28;25072;-71
2023/11/12 13:35:06;;;;;;;254.13;233.45;;;;;;;;;;5002838;28;25068;-72
2023/11/12 13:37:34;;;;;;;251.63;230.57;;;;;;;;;;5006322;28;25163;-72
2023/11/12 13:40:04;;;;;;;242.75;222.82;;;;;;;;;;5011074;28;25168;-71
2023/11/12 13:42:32;;;;;;;254.93;234.40;;;;;;;;;;5013155;28;25121;-72
2023/11/12 13:44:58;;;;;;;261.70;239.48;;;;;;;;;;4987759;28;25137;-72
2023/11/12 13:47:24;;;;;;;245.30;224.30;;;;;;;;;;4994994;28;25077;-72
2023/11/12 13:49:50;;;;;;;250.82;229.85;;;;;;;;;;4987514;28;25071;-71
2023/11/12 13:52:17;;;;;;;260.25;239.27;;;;;;;;;;4988351;28;25111;-73
2023/11/12 13:54:43;;;;;;;260.17;238.75;;;;;;;;;;5008029;28;25071;-73